createdAt,value
2018-07-05T00:00:51.603Z,21.44
2018-07-05T00:01:51.670Z,21.46
2018-07-05T00:02:51.568Z,21.48
2018-07-05T00:03:51.683Z,21.44
2018-07-05T00:04:51.530Z,21.50
2018-07-05T00:05:51.595Z,21.45
2018-07-05T00:06:51.504Z,21.44
2018-07-05T00:07:51.608Z,21.51
2018-07-05T00:08:51.461Z,21.45
2018-07-05T00:09:51.521Z,21.54
2018-07-05T00:10:51.422Z,21.51
2018-07-05T00:11:51.535Z,21.42
2018-07-05T00:12:51.382Z,21.53
2018-07-05T00:13:51.548Z,21.48
2018-07-05T00:14:51.356Z,21.45
2018-07-05T00:15:51.459Z,21.42
2018-07-05T00:16:51.307Z,21.44
2018-07-05T00:17:51.474Z,21.46
2018-07-05T00:18:51.274Z,21.46
2018-07-05T00:19:51.388Z,21.51
2018-07-05T00:20:51.239Z,21.53
2018-07-05T00:21:51.404Z,21.53
2018-07-05T00:22:51.200Z,21.50
2018-07-05T00:23:51.312Z,21.59
2018-07-05T00:24:51.161Z,21.54
2018-07-05T00:25:51.326Z,21.59
2018-07-05T00:26:51.127Z,21.56
2018-07-05T00:27:51.238Z,21.54
2018-07-05T00:28:51.087Z,21.50
2018-07-05T00:29:51.251Z,21.46
2018-07-05T00:30:51.054Z,21.48
2018-07-05T00:31:51.164Z,21.42
2018-07-05T00:32:51.012Z,21.36
2018-07-05T00:33:51.179Z,21.35
2018-07-05T00:34:50.977Z,21.32
2018-07-05T00:35:51.092Z,21.29
2018-07-05T00:36:50.942Z,21.30
2018-07-05T00:37:51.108Z,21.26
2018-07-05T00:38:50.904Z,21.30
2018-07-05T00:39:51.018Z,21.13
2018-07-05T00:40:50.866Z,21.16
2018-07-05T00:41:51.035Z,21.13
2018-07-05T00:42:50.828Z,21.21
2018-07-05T00:43:50.944Z,21.17
2018-07-05T00:44:50.791Z,21.16
2018-07-05T00:45:50.956Z,21.24
2018-07-05T00:46:50.760Z,21.17
2018-07-05T00:47:50.870Z,21.26
2018-07-05T00:48:50.717Z,21.20
2018-07-05T00:49:50.927Z,21.17
2018-07-05T00:50:50.684Z,21.06
2018-07-05T00:51:50.795Z,21.14
2018-07-05T00:52:50.640Z,21.11
2018-07-05T00:53:50.812Z,21.09
2018-07-05T00:54:50.609Z,21.08
2018-07-05T00:55:50.720Z,21.11
2018-07-05T00:56:50.574Z,21.14
2018-07-05T00:57:50.633Z,21.16
2018-07-05T00:58:50.527Z,21.17
2018-07-05T00:59:50.546Z,21.23
2018-07-05T01:00:50.491Z,21.13
2018-07-05T01:01:50.558Z,21.21
2018-07-05T01:02:50.457Z,21.21
2018-07-05T01:03:50.470Z,21.27
2018-07-05T01:04:50.417Z,21.20
2018-07-05T01:05:50.486Z,21.19
2018-07-05T01:06:50.378Z,21.21
2018-07-05T01:07:50.394Z,21.29
2018-07-05T01:08:50.343Z,21.32
2018-07-05T01:09:50.412Z,21.26
2018-07-05T01:10:50.303Z,21.38
2018-07-05T01:11:50.323Z,21.32
2018-07-05T01:12:50.264Z,21.30
2018-07-05T01:13:50.335Z,21.24
2018-07-05T01:14:50.229Z,21.32
2018-07-05T01:15:50.247Z,21.26
2018-07-05T01:16:50.188Z,21.30
2018-07-05T01:17:50.261Z,21.29
2018-07-05T01:18:50.152Z,21.30
2018-07-05T01:19:50.173Z,21.27
2018-07-05T01:20:50.114Z,21.23
2018-07-05T01:21:50.187Z,21.27
2018-07-05T01:22:50.077Z,21.23
2018-07-05T01:23:50.203Z,21.21
2018-07-05T01:24:50.038Z,21.24
2018-07-05T01:25:50.113Z,21.20
2018-07-05T01:26:50.004Z,21.20
2018-07-05T01:27:50.128Z,21.21
2018-07-05T01:28:49.961Z,21.24
2018-07-05T01:29:50.039Z,21.23
2018-07-05T01:30:49.927Z,21.20
2018-07-05T01:31:50.053Z,21.16
2018-07-05T01:32:49.889Z,21.08
2018-07-05T01:33:49.965Z,21.04
2018-07-05T01:34:49.851Z,21.08
2018-07-05T01:35:49.981Z,21.08
2018-07-05T01:36:49.813Z,21.06
2018-07-05T01:37:49.883Z,21.02
2018-07-05T01:38:49.772Z,21.04
2018-07-05T01:39:49.911Z,21.04
2018-07-05T01:40:49.736Z,21.01
2018-07-05T01:41:49.818Z,21.04
2018-07-05T01:42:49.703Z,21.08
2018-07-05T01:43:49.832Z,21.05
2018-07-05T01:44:49.662Z,21.04
2018-07-05T01:45:49.742Z,21.01
2018-07-05T01:46:49.624Z,21.09
2018-07-05T01:47:49.759Z,21.08
2018-07-05T01:48:49.588Z,21.02
2018-07-05T01:49:49.668Z,21.04
2018-07-05T01:50:49.549Z,21.05
2018-07-05T01:51:49.683Z,21.08
2018-07-05T01:52:49.512Z,21.02
2018-07-05T01:53:49.596Z,21.06
2018-07-05T01:54:49.475Z,21.08
2018-07-05T01:55:49.610Z,21.06
2018-07-05T01:56:49.434Z,21.08
2018-07-05T01:57:49.528Z,21.05
2018-07-05T01:58:49.407Z,21.05
2018-07-05T01:59:49.536Z,21.04
2018-07-05T02:00:49.359Z,21.01
2018-07-05T02:01:49.448Z,21.02
2018-07-05T02:02:49.321Z,21.11
2018-07-05T02:03:49.461Z,21.09
2018-07-05T02:04:49.283Z,21.05
2018-07-05T02:05:49.306Z,21.11
2018-07-05T02:06:49.246Z,21.08
2018-07-05T02:07:49.393Z,21.05
2018-07-05T02:08:49.209Z,20.99
2018-07-05T02:09:49.301Z,20.90
2018-07-05T02:10:49.170Z,20.90
2018-07-05T02:11:49.314Z,20.90
2018-07-05T02:12:49.130Z,20.83
2018-07-05T02:13:49.227Z,20.79
2018-07-05T02:14:49.095Z,20.79
2018-07-05T02:15:49.241Z,20.77
2018-07-05T02:16:49.055Z,20.76
2018-07-05T02:17:49.152Z,20.77
2018-07-05T02:18:49.017Z,20.76
2018-07-05T02:19:49.166Z,20.74
2018-07-05T02:20:48.979Z,20.72
2018-07-05T02:21:49.078Z,20.72
2018-07-05T02:22:48.941Z,20.71
2018-07-05T02:23:49.092Z,20.62
2018-07-05T02:24:48.903Z,20.69
2018-07-05T02:25:49.004Z,20.54
2018-07-05T02:26:48.869Z,20.59
2018-07-05T02:27:49.020Z,20.58
2018-07-05T02:28:48.827Z,20.56
2018-07-05T02:29:48.934Z,20.66
2018-07-05T02:30:48.791Z,20.59
2018-07-05T02:31:48.954Z,20.65
2018-07-05T02:32:48.750Z,20.64
2018-07-05T02:33:48.859Z,20.69
2018-07-05T02:34:48.712Z,20.69
2018-07-05T02:35:48.872Z,20.72
2018-07-05T02:36:48.676Z,20.62
2018-07-05T02:37:48.787Z,20.61
2018-07-05T02:38:48.635Z,20.64
2018-07-05T02:39:48.806Z,20.62
2018-07-05T02:40:48.600Z,20.74
2018-07-05T02:41:48.712Z,20.71
2018-07-05T02:42:48.562Z,20.64
2018-07-05T02:43:48.727Z,20.76
2018-07-05T02:44:48.523Z,20.71
2018-07-05T02:45:48.638Z,20.66
2018-07-05T02:46:48.496Z,20.68
2018-07-05T02:47:48.652Z,20.65
2018-07-05T02:48:48.444Z,20.64
2018-07-05T02:49:48.562Z,20.66
2018-07-05T02:50:48.405Z,20.64
2018-07-05T02:51:48.476Z,20.59
2018-07-05T02:52:48.369Z,20.56
2018-07-05T02:53:48.388Z,20.64
2018-07-05T02:54:48.330Z,20.62
2018-07-05T02:55:48.400Z,20.49
2018-07-05T02:56:48.290Z,20.62
2018-07-05T02:57:48.311Z,20.62
2018-07-05T02:58:48.253Z,20.58
2018-07-05T02:59:48.324Z,20.53
2018-07-05T03:00:48.213Z,20.65
2018-07-05T03:01:48.237Z,20.64
2018-07-05T03:02:48.178Z,20.56
2018-07-05T03:03:48.355Z,20.47
2018-07-05T03:04:48.138Z,20.43
2018-07-05T03:05:48.163Z,20.50
2018-07-05T03:06:48.098Z,20.50
2018-07-05T03:07:48.183Z,20.41
2018-07-05T03:08:48.063Z,20.41
2018-07-05T03:09:48.089Z,20.46
2018-07-05T03:10:48.022Z,20.41
2018-07-05T03:11:48.104Z,20.43
2018-07-05T03:12:47.995Z,20.47
2018-07-05T03:13:48.015Z,20.42
2018-07-05T03:14:47.944Z,20.30
2018-07-05T03:15:48.030Z,20.25
2018-07-05T03:16:47.906Z,20.33
2018-07-05T03:17:47.949Z,20.27
2018-07-05T03:18:47.869Z,20.34
2018-07-05T03:19:47.956Z,20.30
2018-07-05T03:20:47.828Z,20.27
2018-07-05T03:21:47.866Z,20.30
2018-07-05T03:22:47.790Z,20.23
2018-07-05T03:23:47.881Z,20.23
2018-07-05T03:24:47.752Z,20.18
2018-07-05T03:25:47.794Z,20.18
2018-07-05T03:26:47.715Z,20.13
2018-07-05T03:27:47.807Z,20.12
2018-07-05T03:28:47.675Z,20.16
2018-07-05T03:29:47.721Z,20.16
2018-07-05T03:30:47.637Z,20.18
2018-07-05T03:31:47.737Z,20.12
2018-07-05T03:32:47.596Z,20.21
2018-07-05T03:33:47.645Z,20.16
2018-07-05T03:34:47.559Z,20.23
2018-07-05T03:35:47.658Z,20.08
2018-07-05T03:36:47.519Z,20.18
2018-07-05T03:37:47.571Z,20.24
2018-07-05T03:38:47.480Z,20.20
2018-07-05T03:39:47.584Z,20.20
2018-07-05T03:40:47.440Z,20.28
2018-07-05T03:41:47.495Z,20.23
2018-07-05T03:42:47.402Z,20.27
2018-07-05T03:43:47.511Z,20.25
2018-07-05T03:44:47.363Z,20.27
2018-07-05T03:45:47.424Z,20.20
2018-07-05T03:46:47.324Z,20.23
2018-07-05T03:47:47.439Z,20.20
2018-07-05T03:48:47.291Z,20.23
2018-07-05T03:49:47.353Z,20.16
2018-07-05T03:50:47.248Z,20.15
2018-07-05T03:51:47.366Z,20.09
2018-07-05T03:52:47.208Z,20.06
2018-07-05T03:53:47.275Z,20.12
2018-07-05T03:54:47.172Z,20.16
2018-07-05T03:55:47.293Z,20.18
2018-07-05T03:56:47.133Z,20.13
2018-07-05T03:57:47.202Z,20.15
2018-07-05T03:58:47.091Z,20.12
2018-07-05T03:59:47.216Z,20.12
2018-07-05T04:00:47.055Z,20.23
2018-07-05T04:01:47.127Z,20.15
2018-07-05T04:02:47.014Z,20.18
2018-07-05T04:03:47.143Z,20.13
2018-07-05T04:04:46.974Z,20.12
2018-07-05T04:05:47.053Z,20.20
2018-07-05T04:06:46.939Z,20.09
2018-07-05T04:07:47.068Z,20.15
2018-07-05T04:08:46.898Z,20.08
2018-07-05T04:09:46.978Z,20.10
2018-07-05T04:10:46.861Z,20.18
2018-07-05T04:11:46.994Z,20.18
2018-07-05T04:12:46.815Z,20.24
2018-07-05T04:13:46.908Z,20.13
2018-07-05T04:14:46.781Z,20.16
2018-07-05T04:15:46.949Z,20.24
2018-07-05T04:16:46.740Z,20.24
2018-07-05T04:17:46.832Z,20.23
2018-07-05T04:18:46.699Z,20.20
2018-07-05T04:19:46.845Z,20.23
2018-07-05T04:20:46.662Z,20.30
2018-07-05T04:21:46.756Z,20.30
2018-07-05T04:22:46.622Z,20.27
2018-07-05T04:23:46.774Z,20.20
2018-07-05T04:24:46.582Z,20.23
2018-07-05T04:25:46.685Z,20.18
2018-07-05T04:26:46.545Z,20.20
2018-07-05T04:27:46.699Z,20.18
2018-07-05T04:28:46.504Z,20.31
2018-07-05T04:29:46.610Z,20.27
2018-07-05T04:30:46.466Z,20.25
2018-07-05T04:31:46.625Z,20.24
2018-07-05T04:32:46.427Z,20.27
2018-07-05T04:33:46.537Z,20.30
2018-07-05T04:34:46.387Z,20.25
2018-07-05T04:35:46.551Z,20.24
2018-07-05T04:36:46.355Z,20.31
2018-07-05T04:37:46.461Z,20.31
2018-07-05T04:38:46.307Z,20.31
2018-07-05T04:39:46.477Z,20.30
2018-07-05T04:40:46.268Z,20.31
2018-07-05T04:41:46.388Z,20.27
2018-07-05T04:42:46.230Z,20.28
2018-07-05T04:43:46.403Z,20.27
2018-07-05T04:44:46.192Z,20.28
2018-07-05T04:45:46.313Z,20.30
2018-07-05T04:46:46.158Z,20.28
2018-07-05T04:47:46.225Z,20.25
2018-07-05T04:48:46.116Z,20.31
2018-07-05T04:49:46.137Z,20.28
2018-07-05T04:50:46.078Z,20.41
2018-07-05T04:51:46.153Z,20.33
2018-07-05T04:52:46.035Z,20.46
2018-07-05T04:53:46.066Z,20.49
2018-07-05T04:54:46.000Z,20.50
2018-07-05T04:55:46.080Z,20.51
2018-07-05T04:56:45.959Z,20.49
2018-07-05T04:57:45.992Z,20.49
2018-07-05T04:58:45.921Z,20.53
2018-07-05T04:59:46.005Z,20.58
2018-07-05T05:00:45.885Z,20.58
2018-07-05T05:01:45.915Z,20.56
2018-07-05T05:02:45.840Z,20.58
2018-07-05T05:03:45.933Z,20.54
2018-07-05T05:04:45.803Z,20.58
2018-07-05T05:05:45.846Z,20.64
2018-07-05T05:06:45.763Z,20.64
2018-07-05T05:07:45.857Z,20.61
2018-07-05T05:08:45.742Z,20.47
2018-07-05T05:09:45.767Z,20.47
2018-07-05T05:10:45.682Z,20.39
2018-07-05T05:11:45.780Z,20.41
2018-07-05T05:12:45.643Z,20.39
2018-07-05T05:13:45.692Z,20.43
2018-07-05T05:14:45.604Z,20.43
2018-07-05T05:15:45.724Z,20.46
2018-07-05T05:16:45.565Z,20.46
2018-07-05T05:17:45.618Z,20.42
2018-07-05T05:18:45.532Z,20.54
2018-07-05T05:19:45.633Z,20.58
2018-07-05T05:20:45.486Z,20.62
2018-07-05T05:21:45.546Z,20.62
2018-07-05T05:22:45.450Z,20.64
2018-07-05T05:23:45.558Z,20.66
2018-07-05T05:24:45.412Z,20.69
2018-07-05T05:25:45.473Z,20.74
2018-07-05T05:26:45.371Z,20.74
2018-07-05T05:27:45.485Z,20.84
2018-07-05T05:28:45.334Z,20.87
2018-07-05T05:29:45.397Z,20.87
2018-07-05T05:30:45.295Z,20.86
2018-07-05T05:31:45.413Z,20.86
2018-07-05T05:32:45.254Z,20.89
2018-07-05T05:33:45.322Z,20.96
2018-07-05T05:34:45.219Z,21.01
2018-07-05T05:35:45.338Z,21.04
2018-07-05T05:36:45.179Z,21.01
2018-07-05T05:37:45.252Z,21.05
2018-07-05T05:38:45.141Z,21.08
2018-07-05T05:39:45.265Z,21.01
2018-07-05T05:40:45.100Z,21.08
2018-07-05T05:41:45.175Z,21.05
2018-07-05T05:42:45.063Z,21.06
2018-07-05T05:43:45.189Z,21.04
2018-07-05T05:44:45.023Z,21.02
2018-07-05T05:45:45.101Z,21.01
2018-07-05T05:46:44.989Z,21.04
2018-07-05T05:47:45.184Z,20.99
2018-07-05T05:48:44.945Z,21.02
2018-07-05T05:49:45.028Z,21.01
2018-07-05T05:50:44.910Z,21.01
2018-07-05T05:51:45.042Z,21.01
2018-07-05T05:52:44.869Z,21.08
2018-07-05T05:53:44.952Z,21.01
2018-07-05T05:54:44.835Z,21.11
2018-07-05T05:55:44.967Z,21.05
2018-07-05T05:56:44.794Z,21.14
2018-07-05T05:57:44.882Z,21.04
2018-07-05T05:58:44.757Z,21.09
2018-07-05T05:59:44.893Z,21.13
2018-07-05T06:00:44.717Z,21.08
2018-07-05T06:01:44.822Z,21.09
2018-07-05T06:02:44.682Z,21.14
2018-07-05T06:03:44.818Z,21.13
2018-07-05T06:04:44.643Z,21.11
2018-07-05T06:05:44.731Z,21.14
2018-07-05T06:06:44.603Z,21.16
2018-07-05T06:07:44.745Z,21.16
2018-07-05T06:08:44.570Z,21.27
2018-07-05T06:09:44.657Z,21.26
2018-07-05T06:10:44.527Z,21.17
2018-07-05T06:11:44.672Z,21.21
2018-07-05T06:12:44.492Z,21.27
2018-07-05T06:13:44.484Z,21.26
2018-07-05T06:14:44.443Z,21.29
2018-07-05T06:15:44.598Z,21.34
2018-07-05T06:16:44.412Z,21.34
2018-07-05T06:17:44.530Z,21.44
2018-07-05T06:18:44.391Z,21.39
2018-07-05T06:19:44.524Z,21.46
2018-07-05T06:20:44.335Z,21.45
2018-07-05T06:21:44.437Z,21.53
2018-07-05T06:22:44.299Z,21.53
2018-07-05T06:23:44.448Z,21.59
2018-07-05T06:24:44.257Z,21.61
2018-07-05T06:25:44.361Z,21.64
2018-07-05T06:26:44.223Z,21.66
2018-07-05T06:27:44.377Z,21.72
2018-07-05T06:28:44.183Z,21.74
2018-07-05T06:29:44.287Z,21.72
2018-07-05T06:30:44.149Z,21.79
2018-07-05T06:31:44.302Z,21.74
2018-07-05T06:32:44.108Z,21.76
2018-07-05T06:33:44.112Z,21.91
2018-07-05T06:34:44.136Z,21.91
2018-07-05T06:35:44.052Z,21.92
2018-07-05T06:36:44.135Z,21.94
2018-07-05T06:37:44.016Z,22.02
2018-07-05T06:38:44.045Z,21.99
2018-07-05T06:39:44.053Z,21.98
2018-07-05T06:40:43.958Z,21.99
2018-07-05T06:41:44.067Z,22.02
2018-07-05T06:42:43.931Z,22.06
2018-07-05T06:43:43.978Z,22.07
2018-07-05T06:44:43.883Z,22.14
2018-07-05T06:45:43.888Z,22.16
2018-07-05T06:46:43.848Z,22.20
2018-07-05T06:47:43.904Z,22.14
2018-07-05T06:48:43.811Z,22.14
2018-07-05T06:49:43.815Z,22.23
2018-07-05T06:50:43.773Z,22.29
2018-07-05T06:51:43.832Z,22.38
2018-07-05T06:52:43.736Z,22.37
2018-07-05T06:53:43.744Z,22.34
2018-07-05T06:54:43.701Z,22.37
2018-07-05T06:55:43.757Z,22.35
2018-07-05T06:56:43.662Z,22.46
2018-07-05T06:57:43.668Z,22.46
2018-07-05T06:58:43.626Z,22.52
2018-07-05T06:59:43.683Z,22.60
2018-07-05T07:00:43.589Z,22.62
2018-07-05T07:01:43.576Z,22.69
2018-07-05T07:02:43.555Z,22.75
2018-07-05T07:03:43.544Z,22.77
2018-07-05T07:04:43.515Z,22.86
2018-07-05T07:05:43.504Z,22.92
2018-07-05T07:06:43.481Z,23.01
2018-07-05T07:07:43.468Z,22.96
2018-07-05T07:08:43.447Z,23.05
2018-07-05T07:09:43.442Z,23.17
2018-07-05T07:10:43.409Z,23.23
2018-07-05T07:11:43.395Z,23.27
2018-07-05T07:12:43.377Z,23.34
2018-07-05T07:13:43.359Z,23.50
2018-07-05T07:14:43.339Z,23.55
2018-07-05T07:15:43.388Z,23.62
2018-07-05T07:16:43.300Z,23.70
2018-07-05T07:17:43.290Z,23.68
2018-07-05T07:18:43.265Z,23.70
2018-07-05T07:19:43.255Z,23.70
2018-07-05T07:20:43.230Z,23.76
2018-07-05T07:21:43.218Z,23.85
2018-07-05T07:22:43.195Z,23.89
2018-07-05T07:23:43.220Z,23.80
2018-07-05T07:24:43.164Z,23.70
2018-07-05T07:25:43.152Z,23.83
2018-07-05T07:26:43.127Z,23.85
2018-07-05T07:27:43.114Z,23.87
2018-07-05T07:28:43.089Z,24.02
2018-07-05T07:29:43.080Z,24.07
2018-07-05T07:30:43.057Z,24.20
2018-07-05T07:31:43.082Z,24.14
2018-07-05T07:32:43.023Z,24.22
2018-07-05T07:33:43.008Z,24.27
2018-07-05T07:34:42.987Z,24.22
2018-07-05T07:35:42.982Z,24.29
2018-07-05T07:36:42.953Z,24.42
2018-07-05T07:37:42.995Z,24.49
2018-07-05T07:38:42.921Z,24.47
2018-07-05T07:39:42.909Z,24.49
2018-07-05T07:40:42.885Z,24.64
2018-07-05T07:41:42.954Z,24.73
2018-07-05T07:42:42.895Z,24.56
2018-07-05T07:43:42.869Z,24.59
2018-07-05T07:44:42.816Z,24.49
2018-07-05T07:45:42.815Z,24.50
2018-07-05T07:46:42.784Z,24.47
2018-07-05T07:47:42.796Z,24.45
2018-07-05T07:48:42.751Z,24.50
2018-07-05T07:49:42.852Z,24.49
2018-07-05T07:50:42.717Z,24.47
2018-07-05T07:51:42.721Z,24.50
2018-07-05T07:52:42.683Z,24.44
2018-07-05T07:53:42.735Z,24.45
2018-07-05T07:54:42.652Z,24.47
2018-07-05T07:55:42.749Z,24.42
2018-07-05T07:56:42.618Z,24.47
2018-07-05T07:57:42.661Z,24.47
2018-07-05T07:58:42.590Z,24.53
2018-07-05T07:59:42.675Z,24.59
2018-07-05T08:00:42.549Z,24.73
2018-07-05T08:01:42.585Z,24.75
2018-07-05T08:02:42.519Z,24.73
2018-07-05T08:03:42.602Z,24.79
2018-07-05T08:04:42.485Z,24.80
2018-07-05T08:05:42.512Z,24.83
2018-07-05T08:06:42.452Z,24.91
2018-07-05T08:07:42.526Z,24.92
2018-07-05T08:08:42.418Z,25.01
2018-07-05T08:09:42.412Z,25.07
2018-07-05T08:10:42.386Z,25.16
2018-07-05T08:11:42.471Z,25.20
2018-07-05T08:12:42.353Z,25.19
2018-07-05T08:13:42.371Z,25.17
2018-07-05T08:14:42.329Z,25.24
2018-07-05T08:15:42.377Z,25.30
2018-07-05T08:16:42.291Z,25.34
2018-07-05T08:17:42.289Z,25.50
2018-07-05T08:18:42.258Z,25.50
2018-07-05T08:19:42.303Z,25.42
2018-07-05T08:20:42.224Z,25.44
2018-07-05T08:21:42.317Z,25.44
2018-07-05T08:22:42.191Z,25.44
2018-07-05T08:23:42.229Z,25.52
2018-07-05T08:24:42.157Z,25.61
2018-07-05T08:25:42.245Z,25.50
2018-07-05T08:26:42.135Z,25.52
2018-07-05T08:27:42.155Z,25.59
2018-07-05T08:28:42.115Z,25.62
2018-07-05T08:29:42.085Z,25.69
2018-07-05T08:30:42.065Z,25.82
2018-07-05T08:31:42.082Z,25.89
2018-07-05T08:32:42.036Z,25.89
2018-07-05T08:33:42.098Z,25.99
2018-07-05T08:34:42.000Z,26.01
2018-07-05T08:35:42.011Z,26.08
2018-07-05T08:36:41.969Z,26.06
2018-07-05T08:37:42.023Z,26.09
2018-07-05T08:38:41.970Z,26.06
2018-07-05T08:39:41.933Z,26.18
2018-07-05T08:40:41.909Z,26.25
2018-07-05T08:41:41.948Z,26.28
2018-07-05T08:42:41.877Z,26.32
2018-07-05T08:43:41.964Z,26.36
2018-07-05T08:44:41.862Z,26.46
2018-07-05T08:45:41.874Z,26.44
2018-07-05T08:46:41.817Z,26.65
2018-07-05T08:47:41.888Z,26.69
2018-07-05T08:48:41.788Z,26.76
2018-07-05T08:49:41.799Z,26.91
2018-07-05T08:50:41.754Z,26.98
2018-07-05T08:51:41.814Z,27.02
2018-07-05T08:52:41.724Z,27.16
2018-07-05T08:53:41.724Z,27.26
2018-07-05T08:54:41.719Z,27.26
2018-07-05T08:55:41.740Z,27.24
2018-07-05T08:56:41.666Z,27.20
2018-07-05T08:57:41.753Z,27.35
2018-07-05T08:58:41.641Z,27.36
2018-07-05T08:59:41.666Z,27.36
2018-07-05T09:00:41.618Z,27.33
2018-07-05T09:01:41.682Z,27.24
2018-07-05T09:02:41.572Z,27.23
2018-07-05T09:03:41.594Z,27.32
2018-07-05T09:04:41.545Z,27.33
2018-07-05T09:05:41.607Z,27.35
2018-07-05T09:06:41.517Z,27.41
2018-07-05T09:07:41.621Z,27.48
2018-07-05T09:08:41.490Z,27.43
2018-07-05T09:09:41.532Z,27.42
2018-07-05T09:10:41.458Z,27.39
2018-07-05T09:11:41.547Z,27.31
2018-07-05T09:12:41.422Z,27.28
2018-07-05T09:13:41.457Z,27.26
2018-07-05T09:14:41.397Z,27.06
2018-07-05T09:15:41.477Z,27.01
2018-07-05T09:16:41.372Z,27.09
2018-07-05T09:17:41.513Z,27.17
2018-07-05T09:18:41.342Z,27.23
2018-07-05T09:19:41.398Z,27.31
2018-07-05T09:20:41.314Z,27.36
2018-07-05T09:21:41.313Z,27.43
2018-07-05T09:22:41.281Z,27.59
2018-07-05T09:23:41.368Z,27.76
2018-07-05T09:24:41.252Z,27.80
2018-07-05T09:25:41.340Z,27.89
2018-07-05T09:26:41.240Z,27.95
2018-07-05T09:27:41.257Z,28.06
2018-07-05T09:28:41.198Z,27.89
2018-07-05T09:29:41.266Z,27.94
2018-07-05T09:30:41.169Z,27.88
2018-07-05T09:31:41.178Z,27.88
2018-07-05T09:32:41.140Z,27.99
2018-07-05T09:33:41.190Z,28.11
2018-07-05T09:34:41.112Z,28.25
2018-07-05T09:35:41.205Z,28.32
2018-07-05T09:36:41.081Z,28.32
2018-07-05T09:37:41.143Z,28.41
2018-07-05T09:38:41.055Z,28.41
2018-07-05T09:39:41.132Z,28.44
2018-07-05T09:40:41.026Z,28.26
2018-07-05T09:41:41.056Z,28.26
2018-07-05T09:42:41.002Z,28.26
2018-07-05T09:43:41.058Z,28.36
2018-07-05T09:44:40.972Z,28.47
2018-07-05T09:45:41.070Z,28.54
2018-07-05T09:46:40.944Z,28.44
2018-07-05T09:47:40.985Z,28.56
2018-07-05T09:48:40.919Z,28.50
2018-07-05T09:49:40.996Z,28.46
2018-07-05T09:50:40.888Z,28.44
2018-07-05T09:51:40.909Z,28.53
2018-07-05T09:52:40.892Z,28.50
2018-07-05T09:53:40.925Z,28.62
2018-07-05T09:54:40.839Z,28.77
2018-07-05T09:55:40.834Z,28.96
2018-07-05T09:56:40.812Z,29.13
2018-07-05T09:57:40.944Z,29.26
2018-07-05T09:58:41.773Z,29.33
2018-07-05T09:59:40.862Z,29.49
2018-07-05T10:00:40.753Z,29.38
2018-07-05T10:01:40.776Z,29.38
2018-07-05T10:02:40.730Z,29.31
2018-07-05T10:03:40.882Z,29.50
2018-07-05T10:04:40.795Z,29.53
2018-07-05T10:05:40.705Z,29.49
2018-07-05T10:06:40.707Z,29.71
2018-07-05T10:07:40.667Z,29.89
2018-07-05T10:08:40.723Z,30.00
2018-07-05T10:09:40.636Z,30.15
2018-07-05T10:10:40.736Z,30.19
2018-07-05T10:11:40.614Z,30.11
2018-07-05T10:12:40.650Z,30.18
2018-07-05T10:13:40.816Z,30.05
2018-07-05T10:14:40.664Z,29.96
2018-07-05T10:15:40.565Z,29.94
2018-07-05T10:16:40.573Z,29.87
2018-07-05T10:17:40.535Z,29.50
2018-07-05T10:18:40.590Z,29.53
2018-07-05T10:19:40.514Z,29.44
2018-07-05T10:20:40.606Z,29.49
2018-07-05T10:21:40.483Z,29.52
2018-07-05T10:22:40.514Z,29.81
2018-07-05T10:23:40.462Z,29.82
2018-07-05T10:24:40.530Z,30.03
2018-07-05T10:25:40.437Z,30.23
2018-07-05T10:26:40.445Z,30.27
2018-07-05T10:27:40.407Z,30.36
2018-07-05T10:28:40.459Z,30.36
2018-07-05T10:29:40.385Z,30.43
2018-07-05T10:30:40.478Z,30.57
2018-07-05T10:31:40.359Z,30.74
2018-07-05T10:32:40.389Z,30.80
2018-07-05T10:33:40.338Z,30.62
2018-07-05T10:34:40.397Z,30.40
2018-07-05T10:35:40.311Z,30.15
2018-07-05T10:36:40.410Z,30.05
2018-07-05T10:37:40.286Z,30.11
2018-07-05T10:38:40.321Z,30.27
2018-07-05T10:39:40.317Z,30.36
2018-07-05T10:40:40.327Z,30.43
2018-07-05T10:41:40.243Z,30.49
2018-07-05T10:42:40.247Z,30.36
2018-07-05T10:43:40.219Z,30.36
2018-07-05T10:44:40.263Z,30.56
2018-07-05T10:45:40.190Z,30.72
2018-07-05T10:46:40.274Z,30.87
2018-07-05T10:47:40.165Z,31.05
2018-07-05T10:48:40.189Z,31.08
2018-07-05T10:49:40.142Z,31.17
2018-07-05T10:50:40.205Z,31.39
2018-07-05T10:51:40.119Z,31.55
2018-07-05T10:52:40.219Z,31.62
2018-07-05T10:53:40.096Z,31.61
2018-07-05T10:54:40.129Z,31.54
2018-07-05T10:55:40.075Z,31.40
2018-07-05T10:56:40.142Z,31.50
2018-07-05T10:57:40.049Z,31.23
2018-07-05T10:58:40.055Z,30.96
2018-07-05T10:59:40.028Z,30.87
2018-07-05T11:00:40.070Z,30.94
2018-07-05T11:01:40.009Z,31.02
2018-07-05T11:02:40.081Z,31.04
2018-07-05T11:03:39.980Z,31.04
2018-07-05T11:04:40.003Z,30.98
2018-07-05T11:05:39.958Z,31.11
2018-07-05T11:06:40.013Z,31.11
2018-07-05T11:07:39.936Z,31.18
2018-07-05T11:08:40.026Z,31.17
2018-07-05T11:09:39.911Z,31.28
2018-07-05T11:10:39.939Z,31.31
2018-07-05T11:11:39.891Z,31.01
2018-07-05T11:12:39.951Z,30.80
2018-07-05T11:13:39.866Z,30.91
2018-07-05T11:14:39.990Z,31.06
2018-07-05T11:15:39.849Z,31.17
2018-07-05T11:16:39.879Z,31.36
2018-07-05T11:17:39.823Z,31.45
2018-07-05T11:18:39.888Z,31.46
2018-07-05T11:19:39.803Z,31.40
2018-07-05T11:20:39.903Z,31.68
2018-07-05T11:21:39.781Z,31.87
2018-07-05T11:22:39.817Z,32.06
2018-07-05T11:23:39.758Z,32.36
2018-07-05T11:24:39.895Z,32.03
2018-07-05T11:25:39.735Z,31.82
2018-07-05T11:26:39.742Z,31.75
2018-07-05T11:27:39.713Z,31.72
2018-07-05T11:28:39.754Z,31.84
2018-07-05T11:29:39.693Z,31.72
2018-07-05T11:30:39.768Z,31.54
2018-07-05T11:31:39.669Z,31.28
2018-07-05T11:32:39.681Z,31.08
2018-07-05T11:33:39.650Z,30.96
2018-07-05T11:34:39.695Z,30.93
2018-07-05T11:35:39.635Z,31.21
2018-07-05T11:36:39.709Z,31.28
2018-07-05T11:37:39.607Z,31.43
2018-07-05T11:38:39.620Z,31.58
2018-07-05T11:39:39.582Z,31.72
2018-07-05T11:40:39.636Z,32.13
2018-07-05T11:41:39.567Z,32.07
2018-07-05T11:42:39.657Z,32.21
2018-07-05T11:43:39.545Z,32.17
2018-07-05T11:44:39.560Z,32.15
2018-07-05T11:45:39.522Z,32.27
2018-07-05T11:46:39.580Z,32.54
2018-07-05T11:47:39.504Z,32.58
2018-07-05T11:48:39.590Z,32.93
2018-07-05T11:49:39.481Z,33.03
2018-07-05T11:50:39.502Z,33.07
2018-07-05T11:51:39.466Z,32.86
2018-07-05T11:52:39.516Z,32.74
2018-07-05T11:53:39.439Z,32.69
2018-07-05T11:54:39.531Z,32.52
2018-07-05T11:55:39.423Z,32.33
2018-07-05T11:56:39.442Z,32.21
2018-07-05T11:57:39.399Z,32.10
2018-07-05T11:58:39.459Z,32.02
2018-07-05T11:59:39.385Z,32.18
2018-07-05T12:00:39.470Z,32.21
2018-07-05T12:01:39.361Z,32.20
2018-07-05T12:02:39.381Z,32.35
2018-07-05T12:03:39.338Z,32.29
2018-07-05T12:04:39.396Z,32.00
2018-07-05T12:05:39.317Z,31.95
2018-07-05T12:06:39.410Z,32.05
2018-07-05T12:07:39.302Z,31.80
2018-07-05T12:08:39.325Z,31.39
2018-07-05T12:09:39.279Z,31.30
2018-07-05T12:10:39.336Z,31.49
2018-07-05T12:11:39.263Z,31.84
2018-07-05T12:12:39.350Z,32.05
2018-07-05T12:13:39.239Z,32.33
2018-07-05T12:14:39.264Z,32.47
2018-07-05T12:15:39.223Z,32.64
2018-07-05T12:16:39.277Z,32.84
2018-07-05T12:17:39.198Z,32.62
2018-07-05T12:18:39.291Z,32.47
2018-07-05T12:19:39.181Z,32.33
2018-07-05T12:20:39.205Z,32.11
2018-07-05T12:21:39.165Z,32.02
2018-07-05T12:22:39.217Z,31.73
2018-07-05T12:23:39.148Z,31.58
2018-07-05T12:24:39.235Z,31.28
2018-07-05T12:25:39.124Z,31.02
2018-07-05T12:26:39.143Z,30.91
2018-07-05T12:27:39.100Z,30.83
2018-07-05T12:28:39.159Z,30.87
2018-07-05T12:29:39.081Z,31.24
2018-07-05T12:30:39.170Z,31.46
2018-07-05T12:31:39.061Z,31.70
2018-07-05T12:32:39.083Z,31.70
2018-07-05T12:33:39.134Z,31.45
2018-07-05T12:34:39.103Z,31.40
2018-07-05T12:35:39.018Z,31.33
2018-07-05T12:36:39.117Z,31.36
2018-07-05T12:37:38.999Z,31.50
2018-07-05T12:38:39.025Z,31.27
2018-07-05T12:39:38.978Z,31.39
2018-07-05T12:40:39.039Z,31.39
2018-07-05T12:41:38.961Z,31.27
2018-07-05T12:42:39.053Z,31.11
2018-07-05T12:43:38.936Z,31.11
2018-07-05T12:44:38.966Z,30.99
2018-07-05T12:45:38.924Z,30.91
2018-07-05T12:46:38.977Z,30.75
2018-07-05T12:47:38.900Z,30.72
2018-07-05T12:48:38.995Z,30.76
2018-07-05T12:49:38.875Z,30.68
2018-07-05T12:50:38.900Z,30.83
2018-07-05T12:51:38.855Z,30.86
2018-07-05T12:52:38.923Z,30.78